Observations for PALERMO POINT RAISI, Italy (LICJ)

LICJ 200720Z 18002KT 9999 FEW020 SCT055 14/10 Q1017 
LICJ 200650Z 33004KT 260V040 9999 FEW018 SCT055 14/10 Q1016 
LICJ 200620Z VRB02KT 9999 FEW035 14/08 Q1016
LICJ 200550Z 14007KT 100V200 9999 FEW030 BKN070 14/08 Q1016 
LICJ 200520Z 09010KT 9999 BKN070 14/08 Q1016
LICJ 200450Z 11012KT 9999 BKN060 14/08 Q1016
LICJ 200420Z 08009KT 9999 SCT060 14/10 Q1016
LICJ 200350Z 07010KT 9999 SCT060 13/10 Q1015
LICJ 200320Z 07012KT 9999 SCT070 13/10 Q1016
LICJ 200250Z 16004KT 090V200 9999 SCT060 12/08 Q1016
LICJ 200220Z VRB02KT 9999 FEW060 11/08 Q1016
LICJ 200150Z VRB02KT 9999 FEW060 12/09 Q1016
LICJ 200120Z 11005KT 350V140 CAVOK 11/07 Q1017  
LICJ 200050Z 13004KT 090V170 CAVOK 11/07 Q1017  
LICJ 200020Z 10007KT 080V150 CAVOK 12/09 Q1017  
LICJ 192350Z 07011KT CAVOK 12/08 Q1017  
LICJ 192320Z 08011KT CAVOK 12/08 Q1017  
LICJ 192250Z 08014KT 9999 FEW025 13/09 Q1017
LICJ 192220Z 08013KT CAVOK 13/08 Q1017  
LICJ 192150Z 07011KT 9999 FEW030 13/08 Q1017
LICJ 192120Z 07010KT 9999 SCT030 13/08 Q1017
LICJ 192050Z 07010KT 9999 SCT028 13/08 Q1017
LICJ 192020Z 06008KT 9999 SCT028 13/08 Q1017
LICJ 191950Z 07010KT 9999 SCT028 13/08 Q1017
LICJ 191920Z 06009KT 9999 SCT028 13/07 Q1017
LICJ 191850Z 05008KT 9999 BKN028 13/07 Q1016
LICJ 191820Z 04006KT 9999 BKN028 13/08 Q1016
LICJ 191750Z 04005KT 9999 BKN030 13/08 Q1016
LICJ 191720Z 04005KT 9999 SCT030 13/07 Q1016
LICJ 191650Z 04004KT 9999 SCT030 13/08 Q1016
LICJ 191620Z 36004KT 9999 SCT030 14/07 Q1016
LICJ 191550Z 36004KT 9999 SCT035 14/07 Q1016
LICJ 191520Z 34004KT 9999 FEW040 14/07 Q1016
LICJ 191450Z 35006KT 9999 FEW040 14/09 Q1016
LICJ 191420Z 35007KT 9999 FEW040 14/09 Q1016
LICJ 191350Z 34006KT 9999 FEW040 14/09 Q1016
LICJ 191320Z 35006KT CAVOK 14/08 Q1016  
LICJ 191250Z 34007KT CAVOK 14/08 Q1016  
LICJ 191220Z 34006KT CAVOK 14/08 Q1016  
LICJ 191150Z 33006KT 9999 FEW030 14/08 Q1016
LICJ 191120Z 31006KT 9999 FEW030 14/07 Q1016
LICJ 191050Z 32006KT 9999 SCT030 13/08 Q1017
LICJ 191020Z 30007KT 9999 SCT030 14/08 Q1017
LICJ 190950Z 29006KT 9999 BKN030 13/08 Q1017
LICJ 190920Z 29007KT 9999 BKN025 13/08 Q1017
LICJ 190850Z 30008KT 9999 FEW022 BKN030 13/09 Q1017 
LICJ 190820Z 30010KT 9999 FEW018 BKN030 13/09 Q1017 
LICJ 190750Z 31011KT 9999 SCT018 SCT025 13/09 Q1016 
LICJ 190720Z 31013KT 9999 SCT015 SCT025 13/09 Q1016 
LICJ 190650Z 30013KT 9999 SCT012 SCT020 13/10 Q1016